createdAt,value
2023-04-14T00:00:08.070Z,4.04
2023-04-14T00:03:22.047Z,3.91
2023-04-14T00:06:28.202Z,3.98
2023-04-14T00:09:32.270Z,3.89
2023-04-14T00:12:37.005Z,3.80
2023-04-14T00:15:43.157Z,4.05
2023-04-14T00:18:47.071Z,4.27
2023-04-14T00:21:51.821Z,4.76
2023-04-14T00:24:56.110Z,4.68
2023-04-14T00:28:00.353Z,4.51
2023-04-14T00:31:04.480Z,4.26
2023-04-14T00:34:08.622Z,4.04
2023-04-14T00:37:13.099Z,4.49
2023-04-14T00:40:17.656Z,4.61
2023-04-14T00:43:22.179Z,4.30
2023-04-14T00:46:26.758Z,4.81
2023-04-14T00:49:31.204Z,5.00
2023-04-14T00:52:35.658Z,4.66
2023-04-14T00:55:41.871Z,4.05
2023-04-14T00:58:46.567Z,4.32
2023-04-14T01:01:51.251Z,4.09
2023-04-14T01:04:57.020Z,3.74
2023-04-14T01:08:02.442Z,3.87
2023-04-14T01:11:13.607Z,3.84
2023-04-14T01:14:43.331Z,4.25
2023-04-14T01:17:58.658Z,4.92
2023-04-14T01:21:18.781Z,4.51
2023-04-14T01:24:26.670Z,4.22
2023-04-14T01:27:52.899Z,4.25
2023-04-14T01:31:18.356Z,4.44
2023-04-14T01:34:49.415Z,4.59
2023-04-14T01:38:04.925Z,4.70
2023-04-14T01:41:14.233Z,4.23
2023-04-14T01:44:20.794Z,3.95
2023-04-14T01:47:27.082Z,3.92
2023-04-14T01:50:33.747Z,4.15
2023-04-14T01:53:44.050Z,4.02
2023-04-14T01:56:49.895Z,4.03
2023-04-14T01:59:58.602Z,4.18
2023-04-14T02:03:06.191Z,4.59
2023-04-14T02:06:14.147Z,5.29
2023-04-14T02:09:20.260Z,4.72
2023-04-14T02:12:26.473Z,4.80
2023-04-14T02:15:33.156Z,5.15
2023-04-14T02:18:39.675Z,5.45
2023-04-14T02:21:44.844Z,5.35
2023-04-14T02:24:49.361Z,5.15
2023-04-14T02:28:04.790Z,4.88
2023-04-14T02:31:13.337Z,5.55
2023-04-14T02:34:25.726Z,5.68
2023-04-14T02:37:44.635Z,5.44
2023-04-14T02:40:54.884Z,5.05
2023-04-14T02:44:12.208Z,4.85
2023-04-14T02:47:25.238Z,5.14
2023-04-14T02:50:34.652Z,4.93
2023-04-14T02:53:50.201Z,5.03
2023-04-14T02:57:12.068Z,5.98
2023-04-14T03:00:20.546Z,6.08
2023-04-14T03:03:29.452Z,5.61
2023-04-14T03:06:39.898Z,5.20
2023-04-14T03:09:46.544Z,5.62
2023-04-14T03:12:53.374Z,5.78
2023-04-14T03:16:00.596Z,5.54
2023-04-14T03:19:08.973Z,5.36
2023-04-14T03:22:19.319Z,5.45
2023-04-14T03:25:28.508Z,5.27
2023-04-14T03:28:37.544Z,5.00
2023-04-14T03:31:46.638Z,5.14
2023-04-14T03:34:59.082Z,5.53
2023-04-14T03:38:09.925Z,5.90
2023-04-14T03:41:15.825Z,6.51
2023-04-14T03:44:22.706Z,6.42
2023-04-14T03:47:32.058Z,5.32
2023-04-14T03:50:44.552Z,5.35
2023-04-14T03:53:49.042Z,4.79
2023-04-14T03:56:57.661Z,4.55
2023-04-14T04:00:06.251Z,4.76
2023-04-14T04:03:18.559Z,4.52
2023-04-14T04:06:23.825Z,4.25
2023-04-14T04:09:30.701Z,5.13
2023-04-14T04:12:39.051Z,5.04
2023-04-14T04:15:46.773Z,5.40
2023-04-14T04:18:53.255Z,4.88
2023-04-14T04:22:05.912Z,5.26
2023-04-14T04:25:15.255Z,6.28
2023-04-14T04:28:28.640Z,6.72
2023-04-14T04:31:35.179Z,7.22
2023-04-14T04:34:40.768Z,7.10
2023-04-14T04:37:45.640Z,7.39
2023-04-14T04:40:50.741Z,7.59
2023-04-14T04:44:00.293Z,6.84
2023-04-14T04:47:05.009Z,7.40
2023-04-14T04:50:09.676Z,7.23
2023-04-14T04:53:14.637Z,7.13
2023-04-14T04:56:19.332Z,7.18
2023-04-14T04:59:23.692Z,7.14
2023-04-14T05:02:28.331Z,8.04
2023-04-14T05:05:37.305Z,8.23
2023-04-14T05:08:41.720Z,8.23
2023-04-14T05:11:46.326Z,6.73
2023-04-14T05:14:51.215Z,6.97
2023-04-14T05:17:55.219Z,7.43
2023-04-14T05:21:14.174Z,8.01
2023-04-14T05:24:18.620Z,7.54
2023-04-14T05:27:22.980Z,7.38
2023-04-14T05:30:27.452Z,6.85
2023-04-14T05:33:32.021Z,6.94
2023-04-14T05:36:36.066Z,6.70
2023-04-14T05:39:41.809Z,6.88
2023-04-14T05:42:45.742Z,7.21
2023-04-14T05:45:49.673Z,7.31
2023-04-14T05:48:53.893Z,7.62
2023-04-14T05:51:58.024Z,7.72
2023-04-14T05:55:02.368Z,7.00
2023-04-14T05:58:06.847Z,6.63
2023-04-14T06:01:11.007Z,6.93
2023-04-14T06:04:16.564Z,7.12
2023-04-14T06:07:21.262Z,7.06
2023-04-14T06:10:25.318Z,7.14
2023-04-14T06:13:31.992Z,7.32
2023-04-14T06:16:38.122Z,6.89
2023-04-14T06:19:54.417Z,6.81
2023-04-14T06:23:01.704Z,7.16
2023-04-14T06:26:06.446Z,7.31
2023-04-14T06:29:10.453Z,7.58
2023-04-14T06:32:14.534Z,7.64
2023-04-14T06:35:31.975Z,7.38
2023-04-14T06:38:37.710Z,7.01
2023-04-14T06:41:41.660Z,6.92
2023-04-14T06:44:49.369Z,7.09
2023-04-14T06:47:53.221Z,7.26
2023-04-14T06:50:58.186Z,7.38
2023-04-14T06:54:04.635Z,6.92
2023-04-14T06:57:09.160Z,7.26
2023-04-14T07:00:14.492Z,7.28
2023-04-14T07:03:18.672Z,6.97
2023-04-14T07:06:23.022Z,7.03
2023-04-14T07:09:27.234Z,7.04
2023-04-14T07:12:31.721Z,7.01
2023-04-14T07:15:35.983Z,7.04
2023-04-14T07:18:40.366Z,6.54
2023-04-14T07:21:46.837Z,6.75
2023-04-14T07:24:51.727Z,7.09
2023-04-14T07:28:03.172Z,6.94
2023-04-14T07:31:11.261Z,7.01
2023-04-14T07:34:15.543Z,6.78
2023-04-14T07:37:20.680Z,6.51
2023-04-14T07:40:25.056Z,6.54
2023-04-14T07:43:30.649Z,6.90
2023-04-14T07:46:35.177Z,6.77
2023-04-14T07:49:39.771Z,6.71
2023-04-14T07:52:43.638Z,6.58
2023-04-14T07:55:48.097Z,6.71
2023-04-14T07:58:52.379Z,6.20
2023-04-14T08:01:56.565Z,6.41
2023-04-14T08:05:00.550Z,6.70
2023-04-14T08:08:06.679Z,6.61
2023-04-14T08:11:11.305Z,6.65
2023-04-14T08:14:16.340Z,6.66
2023-04-14T08:17:21.653Z,6.61
2023-04-14T08:20:25.877Z,6.87
2023-04-14T08:23:29.853Z,6.42
2023-04-14T08:27:12.181Z,5.59
2023-04-14T08:30:40.769Z,5.63
2023-04-14T08:34:03.406Z,6.22
2023-04-14T08:37:10.081Z,6.18
2023-04-14T08:40:17.763Z,5.93
2023-04-14T08:43:22.787Z,5.95
2023-04-14T08:46:29.145Z,5.76
2023-04-14T08:49:43.539Z,5.76
2023-04-14T08:52:50.360Z,5.86
2023-04-14T08:55:58.067Z,5.93
2023-04-14T08:59:03.372Z,5.91
2023-04-14T09:02:08.015Z,6.10
2023-04-14T09:05:13.867Z,6.18
2023-04-14T09:08:18.184Z,6.08
2023-04-14T09:11:23.378Z,5.80
2023-04-14T09:14:28.450Z,5.95
2023-04-14T09:17:37.434Z,5.98
2023-04-14T09:20:42.409Z,5.67
2023-04-14T09:23:47.148Z,5.92
2023-04-14T09:26:53.894Z,5.93
2023-04-14T09:30:00.653Z,5.77
2023-04-14T09:33:08.397Z,5.47
2023-04-14T09:36:21.187Z,5.51
2023-04-14T09:39:25.150Z,5.50
2023-04-14T09:42:43.682Z,5.59
2023-04-14T09:45:48.461Z,4.91
2023-04-14T09:48:57.162Z,5.04
2023-04-14T09:52:11.274Z,4.91
2023-04-14T09:55:17.798Z,4.83
2023-04-14T09:58:27.321Z,4.95
2023-04-14T10:01:35.143Z,5.05
2023-04-14T10:04:40.021Z,4.88
2023-04-14T10:07:45.559Z,4.67
2023-04-14T10:10:49.867Z,4.37
2023-04-14T10:13:59.300Z,4.63
2023-04-14T10:17:03.724Z,4.38
2023-04-14T10:20:08.747Z,4.38
2023-04-14T10:23:13.534Z,4.42
2023-04-14T10:26:18.732Z,4.17
2023-04-14T10:29:23.962Z,4.54
2023-04-14T10:32:32.858Z,4.31
2023-04-14T10:35:47.936Z,4.17
2023-04-14T10:39:04.255Z,4.02
2023-04-14T10:42:09.208Z,3.88
2023-04-14T10:45:13.557Z,3.93
2023-04-14T10:48:18.440Z,4.09
2023-04-14T10:51:36.944Z,4.14
2023-04-14T10:55:02.122Z,3.99
2023-04-14T10:58:07.728Z,3.80
2023-04-14T11:01:33.163Z,3.94
2023-04-14T11:05:19.141Z,3.97
2023-04-14T11:08:28.049Z,3.59
2023-04-14T11:11:32.501Z,3.18
2023-04-14T11:14:37.483Z,3.36
2023-04-14T11:17:47.555Z,3.25
2023-04-14T11:20:54.060Z,3.32
2023-04-14T11:24:00.267Z,3.79
2023-04-14T11:27:05.594Z,3.89
2023-04-14T11:30:20.747Z,3.89
2023-04-14T11:33:32.555Z,3.64
2023-04-14T11:36:40.234Z,3.48
2023-04-14T11:39:45.251Z,3.82
2023-04-14T11:42:55.356Z,3.59
2023-04-14T11:46:01.744Z,3.69
2023-04-14T11:49:06.831Z,3.66
2023-04-14T11:52:11.388Z,3.63
2023-04-14T11:55:18.508Z,3.39
2023-04-14T11:58:25.438Z,3.26
2023-04-14T12:01:30.937Z,3.26
2023-04-14T12:04:35.901Z,3.32
2023-04-14T12:07:40.872Z,3.41
2023-04-14T12:10:47.689Z,3.11
2023-04-14T12:13:53.700Z,3.08
2023-04-14T12:16:59.530Z,3.07
2023-04-14T12:20:06.307Z,2.75
2023-04-14T12:23:10.855Z,2.59
2023-04-14T12:26:15.790Z,2.69
2023-04-14T12:29:23.748Z,2.46
2023-04-14T12:32:31.553Z,2.43
2023-04-14T12:35:36.115Z,2.32
2023-04-14T12:38:40.650Z,2.08
2023-04-14T12:41:44.700Z,1.99
2023-04-14T12:45:03.103Z,1.81
2023-04-14T12:48:07.864Z,1.80
2023-04-14T12:51:22.360Z,1.75
2023-04-14T12:54:27.096Z,1.64
2023-04-14T12:57:33.497Z,1.42
2023-04-14T13:00:38.145Z,1.67
2023-04-14T13:03:51.439Z,1.53
2023-04-14T13:06:56.371Z,1.38
2023-04-14T13:10:00.943Z,1.25
2023-04-14T13:13:10.599Z,1.25
2023-04-14T13:16:22.948Z,1.30
2023-04-14T13:19:31.193Z,1.00
2023-04-14T13:22:36.229Z,0.99
2023-04-14T13:25:40.703Z,0.97
2023-04-14T13:28:44.653Z,1.14
2023-04-14T13:31:49.045Z,1.17
2023-04-14T13:34:53.621Z,1.24
2023-04-14T13:37:59.969Z,1.32
2023-04-14T13:41:07.381Z,1.42
2023-04-14T13:44:16.357Z,1.43
2023-04-14T13:47:29.422Z,1.39
2023-04-14T13:50:40.421Z,1.65
2023-04-14T13:53:51.573Z,1.57
2023-04-14T13:57:02.864Z,1.32
2023-04-14T14:00:11.282Z,1.12
2023-04-14T14:03:18.253Z,1.09
2023-04-14T14:06:24.696Z,1.29
2023-04-14T14:09:30.432Z,1.32
2023-04-14T14:12:34.943Z,1.17
2023-04-14T14:15:40.127Z,1.30
2023-04-14T14:18:45.966Z,1.59
2023-04-14T14:21:49.543Z,1.41
2023-04-14T14:25:06.899Z,1.35
2023-04-14T14:28:19.979Z,1.43
2023-04-14T14:31:24.722Z,1.38
2023-04-14T14:34:29.218Z,1.44
2023-04-14T14:37:33.710Z,1.41
2023-04-14T14:40:38.182Z,1.36
2023-04-14T14:43:42.616Z,1.40
2023-04-14T14:46:48.050Z,1.70
2023-04-14T14:49:59.586Z,1.87
2023-04-14T14:53:04.863Z,1.63
2023-04-14T14:56:09.384Z,1.92
2023-04-14T14:59:13.766Z,2.15
2023-04-14T15:02:18.492Z,2.26
2023-04-14T15:05:23.052Z,2.12
2023-04-14T15:08:27.422Z,1.66
2023-04-14T15:11:31.695Z,1.15
2023-04-14T15:14:36.478Z,0.68
2023-04-14T15:17:41.108Z,0.57
2023-04-14T15:20:45.680Z,0.32
2023-04-14T15:23:50.585Z,0.28
2023-04-14T15:26:54.962Z,0.23
2023-04-14T15:29:59.475Z,-0.11
2023-04-14T15:33:04.047Z,0.14
2023-04-14T15:36:08.746Z,0.20
2023-04-14T15:39:13.465Z,0.27
2023-04-14T15:42:17.923Z,-0.12
2023-04-14T15:45:22.505Z,-0.25
2023-04-14T15:48:27.307Z,-0.26
2023-04-14T15:51:31.741Z,-0.09
2023-04-14T15:54:36.680Z,-0.19
2023-04-14T15:57:41.594Z,-0.12
2023-04-14T16:00:46.688Z,-0.28
2023-04-14T16:03:52.616Z,-0.65
2023-04-14T16:06:57.247Z,-0.41
2023-04-14T16:10:02.249Z,-0.59
2023-04-14T16:13:07.180Z,-0.31
2023-04-14T16:16:13.757Z,-0.26
2023-04-14T16:19:18.577Z,-0.36
2023-04-14T16:22:23.886Z,-0.84
2023-04-14T16:25:28.692Z,-0.54
2023-04-14T16:28:33.174Z,-0.90
2023-04-14T16:31:37.965Z,-0.55
2023-04-14T16:34:42.122Z,-0.68
2023-04-14T16:37:46.402Z,-0.75
2023-04-14T16:40:58.308Z,-0.69
2023-04-14T16:44:02.830Z,-0.62
2023-04-14T16:47:07.658Z,-0.74
2023-04-14T16:50:12.554Z,-0.77
2023-04-14T16:53:17.620Z,-0.94
2023-04-14T16:56:22.292Z,-0.98
2023-04-14T16:59:26.910Z,-0.88
2023-04-14T17:02:31.521Z,-0.88
2023-04-14T17:05:36.146Z,-0.93
2023-04-14T17:08:40.812Z,-0.80
2023-04-14T17:11:45.446Z,-0.78
2023-04-14T17:14:49.817Z,-1.00
2023-04-14T17:17:54.279Z,-1.03
2023-04-14T17:20:59.272Z,-1.06
2023-04-14T17:24:05.564Z,-1.10
2023-04-14T17:27:10.009Z,-1.08
2023-04-14T17:30:14.900Z,-1.36
2023-04-14T17:33:20.733Z,-1.13
2023-04-14T17:36:25.054Z,-1.24
2023-04-14T17:39:29.700Z,-1.18
2023-04-14T17:42:35.111Z,-1.23
2023-04-14T17:45:43.031Z,-1.31
2023-04-14T17:48:47.742Z,-1.28
2023-04-14T17:51:52.428Z,-1.32
2023-04-14T17:54:56.774Z,-1.62
2023-04-14T17:58:01.750Z,-1.53
2023-04-14T18:01:06.594Z,-1.46
2023-04-14T18:04:11.157Z,-1.73
2023-04-14T18:07:15.630Z,-1.44
2023-04-14T18:10:20.416Z,-1.45
2023-04-14T18:13:24.704Z,-1.65
2023-04-14T18:16:29.433Z,-1.52
2023-04-14T18:19:36.623Z,-1.34
2023-04-14T18:22:41.189Z,-1.22
2023-04-14T18:28:53.191Z,-1.55
2023-04-14T18:31:59.157Z,-1.48
2023-04-14T18:35:03.050Z,-1.35
2023-04-14T18:38:08.328Z,-1.72
2023-04-14T18:41:13.154Z,-1.89
2023-04-14T18:44:17.914Z,-1.88
2023-04-14T18:47:23.102Z,-2.10
2023-04-14T18:50:28.073Z,-2.01
2023-04-14T18:53:32.733Z,-2.08
2023-04-14T18:56:37.713Z,-2.09
2023-04-14T18:59:42.789Z,-1.77
2023-04-14T19:02:47.764Z,-1.42
2023-04-14T19:05:52.846Z,-1.18
2023-04-14T19:09:02.022Z,-1.35
2023-04-14T19:12:12.815Z,-1.29
2023-04-14T19:15:29.607Z,-1.47
2023-04-14T19:18:33.944Z,-1.54
2023-04-14T19:21:38.494Z,-1.54
2023-04-14T19:24:43.095Z,-1.85
2023-04-14T19:27:47.663Z,-1.95
2023-04-14T19:30:51.823Z,-2.08
2023-04-14T19:33:57.121Z,-1.98
2023-04-14T19:37:04.932Z,-1.92
2023-04-14T19:40:11.814Z,-1.76
2023-04-14T19:43:19.643Z,-1.80
2023-04-14T19:46:24.300Z,-2.12
2023-04-14T19:49:29.154Z,-2.13
2023-04-14T19:52:33.691Z,-1.87
2023-04-14T19:55:38.108Z,-1.70
2023-04-14T19:58:42.581Z,-2.11
2023-04-14T20:01:48.232Z,-2.13
2023-04-14T20:04:52.332Z,-2.33
2023-04-14T20:07:56.985Z,-2.36
2023-04-14T20:11:01.312Z,-2.45
2023-04-14T20:14:06.163Z,-2.31
2023-04-14T20:17:10.691Z,-2.22
2023-04-14T20:20:17.283Z,-2.33
2023-04-14T20:23:22.570Z,-2.40
2023-04-14T20:26:27.048Z,-2.42
2023-04-14T20:29:31.495Z,-2.26
2023-04-14T20:32:36.466Z,-2.17
2023-04-14T20:35:41.342Z,-1.89
2023-04-14T20:38:45.770Z,-1.73
2023-04-14T20:41:50.275Z,-1.58
2023-04-14T20:44:54.514Z,-1.74
2023-04-14T20:47:59.748Z,-2.09
2023-04-14T20:51:04.397Z,-1.64
2023-04-14T20:54:08.595Z,-1.73
2023-04-14T20:57:13.132Z,-1.49
2023-04-14T21:00:19.602Z,-1.52
2023-04-14T21:03:24.651Z,-1.49
2023-04-14T21:06:30.068Z,-1.55
2023-04-14T21:09:35.887Z,-1.23
2023-04-14T21:13:54.281Z,-0.80
2023-04-14T21:16:04.972Z,-0.75
2023-04-14T21:19:14.293Z,0.22
2023-04-14T21:22:18.764Z,0.59
2023-04-14T21:25:24.085Z,1.69
2023-04-14T21:28:28.699Z,3.42
2023-04-14T21:31:33.905Z,3.96
2023-04-14T21:34:38.754Z,4.69
2023-04-14T21:37:43.615Z,5.49
2023-04-14T21:40:47.695Z,5.79
2023-04-14T21:43:52.366Z,6.57
2023-04-14T21:46:57.738Z,7.11
2023-04-14T21:50:02.182Z,7.67
2023-04-14T21:53:07.403Z,8.78
2023-04-14T21:56:13.771Z,9.51
2023-04-14T21:59:18.519Z,9.99
2023-04-14T22:02:23.654Z,10.61
2023-04-14T22:05:28.274Z,11.20
2023-04-14T22:08:32.821Z,11.28
2023-04-14T22:11:38.479Z,10.87
2023-04-14T22:14:46.490Z,11.39
2023-04-14T22:17:54.387Z,11.88
2023-04-14T22:20:59.525Z,12.57
2023-04-14T22:24:03.967Z,13.06
2023-04-14T22:27:10.715Z,13.42
2023-04-14T22:30:15.115Z,13.79
2023-04-14T22:33:19.664Z,12.82
2023-04-14T22:36:24.133Z,12.68
2023-04-14T22:39:28.877Z,12.67
2023-04-14T22:42:32.728Z,12.71
2023-04-14T22:45:38.680Z,12.96
2023-04-14T22:48:43.338Z,13.65
2023-04-14T22:51:47.999Z,11.98
2023-04-14T22:54:52.538Z,13.11
2023-04-14T22:57:56.703Z,12.82
2023-04-14T23:01:09.125Z,12.90
2023-04-14T23:04:20.008Z,11.57
2023-04-14T23:07:24.310Z,11.39
2023-04-14T23:10:29.360Z,10.95
2023-04-14T23:13:34.328Z,11.01
2023-04-14T23:16:38.937Z,10.90
2023-04-14T23:19:43.433Z,11.57
2023-04-14T23:22:47.540Z,11.09
2023-04-14T23:25:52.200Z,10.60
2023-04-14T23:28:56.749Z,10.69
2023-04-14T23:32:00.785Z,10.69
2023-04-14T23:35:05.167Z,10.77
2023-04-14T23:38:09.863Z,10.70
2023-04-14T23:41:14.318Z,10.60
2023-04-14T23:44:18.161Z,10.99
2023-04-14T23:47:23.643Z,10.52
2023-04-14T23:51:01.178Z,10.49
2023-04-14T23:53:52.942Z,10.63
2023-04-14T23:56:57.648Z,10.28
